sensor_id;sensor_type;location;lat;lon;timestamp;P1;durP1;ratioP1;P2;durP2;ratioP2
54430;SDS011;40342;52.998;5.862;2023-11-18T00:00:27;31.40;;;21.67;;
54430;SDS011;40342;52.998;5.862;2023-11-18T00:02:53;32.00;;;21.73;;
54430;SDS011;40342;52.998;5.862;2023-11-18T00:05:18;34.67;;;22.63;;
54430;SDS011;40342;52.998;5.862;2023-11-18T00:07:44;33.17;;;23.20;;
54430;SDS011;40342;52.998;5.862;2023-11-18T00:10:10;32.92;;;22.58;;
54430;SDS011;40342;52.998;5.862;2023-11-18T00:12:36;30.90;;;21.73;;
54430;SDS011;40342;52.998;5.862;2023-11-18T00:15:02;32.10;;;23.02;;
54430;SDS011;40342;52.998;5.862;2023-11-18T00:17:32;33.38;;;22.85;;
54430;SDS011;40342;52.998;5.862;2023-11-18T00:19:57;30.35;;;22.48;;
54430;SDS011;40342;52.998;5.862;2023-11-18T00:22:23;32.63;;;23.15;;
54430;SDS011;40342;52.998;5.862;2023-11-18T00:24:48;37.65;;;23.50;;
54430;SDS011;40342;52.998;5.862;2023-11-18T00:27:15;35.47;;;24.65;;
54430;SDS011;40342;52.998;5.862;2023-11-18T00:29:40;34.00;;;22.58;;
54430;SDS011;40342;52.998;5.862;2023-11-18T00:32:08;33.28;;;23.45;;
54430;SDS011;40342;52.998;5.862;2023-11-18T00:34:34;32.35;;;23.55;;
54430;SDS011;40342;52.998;5.862;2023-11-18T00:37:00;30.83;;;23.52;;
54430;SDS011;40342;52.998;5.862;2023-11-18T00:39:25;31.40;;;22.80;;
54430;SDS011;40342;52.998;5.862;2023-11-18T00:41:52;33.10;;;23.52;;
54430;SDS011;40342;52.998;5.862;2023-11-18T00:44:17;35.15;;;22.95;;
54430;SDS011;40342;52.998;5.862;2023-11-18T00:46:43;40.47;;;25.30;;
54430;SDS011;40342;52.998;5.862;2023-11-18T00:49:09;36.08;;;24.45;;
54430;SDS011;40342;52.998;5.862;2023-11-18T00:51:36;40.58;;;26.02;;
54430;SDS011;40342;52.998;5.862;2023-11-18T00:54:02;35.85;;;25.25;;
54430;SDS011;40342;52.998;5.862;2023-11-18T00:56:30;34.38;;;25.38;;
54430;SDS011;40342;52.998;5.862;2023-11-18T00:58:59;35.08;;;25.27;;
54430;SDS011;40342;52.998;5.862;2023-11-18T01:01:26;35.42;;;26.10;;
54430;SDS011;40342;52.998;5.862;2023-11-18T01:03:52;34.13;;;25.13;;
54430;SDS011;40342;52.998;5.862;2023-11-18T01:06:18;36.55;;;25.70;;
54430;SDS011;40342;52.998;5.862;2023-11-18T01:08:44;36.55;;;25.55;;
54430;SDS011;40342;52.998;5.862;2023-11-18T01:11:10;37.33;;;25.05;;
54430;SDS011;40342;52.998;5.862;2023-11-18T01:13:40;34.85;;;24.20;;
54430;SDS011;40342;52.998;5.862;2023-11-18T01:16:06;34.08;;;25.27;;
54430;SDS011;40342;52.998;5.862;2023-11-18T01:18:32;33.17;;;24.35;;
54430;SDS011;40342;52.998;5.862;2023-11-18T01:20:57;35.03;;;24.35;;
54430;SDS011;40342;52.998;5.862;2023-11-18T01:23:24;38.33;;;26.35;;
54430;SDS011;40342;52.998;5.862;2023-11-18T01:25:49;34.25;;;25.00;;
54430;SDS011;40342;52.998;5.862;2023-11-18T01:28:16;36.22;;;24.30;;
54430;SDS011;40342;52.998;5.862;2023-11-18T01:30:42;35.63;;;25.27;;
54430;SDS011;40342;52.998;5.862;2023-11-18T01:33:09;33.03;;;24.38;;
54430;SDS011;40342;52.998;5.862;2023-11-18T01:35:35;38.13;;;26.05;;
54430;SDS011;40342;52.998;5.862;2023-11-18T01:38:01;37.15;;;25.20;;
54430;SDS011;40342;52.998;5.862;2023-11-18T01:40:26;33.75;;;24.80;;
54430;SDS011;40342;52.998;5.862;2023-11-18T01:42:55;36.45;;;26.33;;
54430;SDS011;40342;52.998;5.862;2023-11-18T01:45:21;36.92;;;24.92;;
54430;SDS011;40342;52.998;5.862;2023-11-18T01:47:47;34.53;;;24.38;;
54430;SDS011;40342;52.998;5.862;2023-11-18T01:50:13;36.45;;;25.17;;
54430;SDS011;40342;52.998;5.862;2023-11-18T01:52:40;40.40;;;25.10;;
54430;SDS011;40342;52.998;5.862;2023-11-18T01:55:07;33.15;;;24.30;;
54430;SDS011;40342;52.998;5.862;2023-11-18T01:57:33;36.70;;;25.85;;
54430;SDS011;40342;52.998;5.862;2023-11-18T01:59:59;37.78;;;24.88;;
54430;SDS011;40342;52.998;5.862;2023-11-18T02:02:30;38.70;;;24.30;;
54430;SDS011;40342;52.998;5.862;2023-11-18T02:04:56;36.55;;;24.75;;
54430;SDS011;40342;52.998;5.862;2023-11-18T02:07:22;35.03;;;25.45;;
54430;SDS011;40342;52.998;5.862;2023-11-18T02:09:49;40.00;;;25.90;;
54430;SDS011;40342;52.998;5.862;2023-11-18T02:15:09;36.55;;;26.52;;
54430;SDS011;40342;52.998;5.862;2023-11-18T02:17:38;37.33;;;25.77;;
54430;SDS011;40342;52.998;5.862;2023-11-18T02:20:05;36.25;;;24.67;;
54430;SDS011;40342;52.998;5.862;2023-11-18T02:22:41;35.22;;;24.67;;
54430;SDS011;40342;52.998;5.862;2023-11-18T02:25:08;36.78;;;26.33;;
54430;SDS011;40342;52.998;5.862;2023-11-18T02:27:35;38.40;;;27.05;;
54430;SDS011;40342;52.998;5.862;2023-11-18T02:30:02;36.25;;;25.05;;
54430;SDS011;40342;52.998;5.862;2023-11-18T02:33:03;37.90;;;26.42;;
54430;SDS011;40342;52.998;5.862;2023-11-18T02:38:06;38.00;;;27.23;;
54430;SDS011;40342;52.998;5.862;2023-11-18T02:40:39;37.97;;;26.98;;
54430;SDS011;40342;52.998;5.862;2023-11-18T02:43:08;38.28;;;26.92;;
54430;SDS011;40342;52.998;5.862;2023-11-18T02:45:35;41.90;;;27.45;;
54430;SDS011;40342;52.998;5.862;2023-11-18T02:48:02;37.45;;;26.65;;
54430;SDS011;40342;52.998;5.862;2023-11-18T02:50:32;42.45;;;27.55;;
54430;SDS011;40342;52.998;5.862;2023-11-18T02:52:57;39.90;;;27.08;;
54430;SDS011;40342;52.998;5.862;2023-11-18T02:55:23;41.90;;;27.02;;
54430;SDS011;40342;52.998;5.862;2023-11-18T02:57:49;38.40;;;26.80;;
54430;SDS011;40342;52.998;5.862;2023-11-18T03:00:18;39.50;;;26.88;;
54430;SDS011;40342;52.998;5.862;2023-11-18T03:02:47;40.72;;;27.83;;
54430;SDS011;40342;52.998;5.862;2023-11-18T03:05:15;40.15;;;28.20;;
54430;SDS011;40342;52.998;5.862;2023-11-18T03:07:41;39.42;;;26.70;;
54430;SDS011;40342;52.998;5.862;2023-11-18T03:10:07;59.42;;;27.75;;
54430;SDS011;40342;52.998;5.862;2023-11-18T03:12:37;60.20;;;27.23;;
54430;SDS011;40342;52.998;5.862;2023-11-18T03:15:04;67.47;;;27.50;;
54430;SDS011;40342;52.998;5.862;2023-11-18T03:17:36;79.38;;;27.17;;
54430;SDS011;40342;52.998;5.862;2023-11-18T03:20:03;58.97;;;25.52;;
54430;SDS011;40342;52.998;5.862;2023-11-18T03:22:34;129.48;;;26.92;;
54430;SDS011;40342;52.998;5.862;2023-11-18T03:24:59;114.45;;;26.23;;
54430;SDS011;40342;52.998;5.862;2023-11-18T03:27:25;93.97;;;27.52;;
54430;SDS011;40342;52.998;5.862;2023-11-18T03:29:51;100.97;;;27.45;;
54430;SDS011;40342;52.998;5.862;2023-11-18T03:32:17;57.30;;;26.10;;
54430;SDS011;40342;52.998;5.862;2023-11-18T03:34:42;89.80;;;26.00;;
54430;SDS011;40342;52.998;5.862;2023-11-18T03:37:09;83.50;;;25.55;;
54430;SDS011;40342;52.998;5.862;2023-11-18T03:39:35;84.70;;;25.48;;
54430;SDS011;40342;52.998;5.862;2023-11-18T03:42:00;53.17;;;25.60;;
54430;SDS011;40342;52.998;5.862;2023-11-18T03:44:26;42.35;;;26.58;;
54430;SDS011;40342;52.998;5.862;2023-11-18T03:46:51;48.50;;;28.40;;
54430;SDS011;40342;52.998;5.862;2023-11-18T03:49:17;54.13;;;28.75;;
54430;SDS011;40342;52.998;5.862;2023-11-18T03:51:44;50.85;;;30.73;;
54430;SDS011;40342;52.998;5.862;2023-11-18T03:54:10;52.80;;;29.45;;
54430;SDS011;40342;52.998;5.862;2023-11-18T03:56:36;47.30;;;29.60;;
54430;SDS011;40342;52.998;5.862;2023-11-18T03:59:02;56.17;;;30.63;;
54430;SDS011;40342;52.998;5.862;2023-11-18T04:01:29;48.22;;;31.08;;
54430;SDS011;40342;52.998;5.862;2023-11-18T04:03:55;54.13;;;30.90;;
54430;SDS011;40342;52.998;5.862;2023-11-18T04:06:23;44.58;;;29.85;;
54430;SDS011;40342;52.998;5.862;2023-11-18T04:08:49;46.70;;;30.05;;
54430;SDS011;40342;52.998;5.862;2023-11-18T04:11:15;47.80;;;31.25;;
54430;SDS011;40342;52.998;5.862;2023-11-18T04:13:41;46.95;;;29.30;;
54430;SDS011;40342;52.998;5.862;2023-11-18T04:16:13;51.10;;;31.73;;
54430;SDS011;40342;52.998;5.862;2023-11-18T04:18:44;54.63;;;31.65;;
54430;SDS011;40342;52.998;5.862;2023-11-18T04:21:10;58.15;;;31.13;;
54430;SDS011;40342;52.998;5.862;2023-11-18T04:23:38;52.35;;;31.20;;
54430;SDS011;40342;52.998;5.862;2023-11-18T04:26:05;59.92;;;32.95;;
54430;SDS011;40342;52.998;5.862;2023-11-18T04:28:32;61.58;;;32.55;;
54430;SDS011;40342;52.998;5.862;2023-11-18T04:30:58;86.07;;;32.90;;
54430;SDS011;40342;52.998;5.862;2023-11-18T04:33:24;106.95;;;32.05;;
54430;SDS011;40342;52.998;5.862;2023-11-18T04:35:50;77.55;;;31.35;;
54430;SDS011;40342;52.998;5.862;2023-11-18T04:38:16;82.53;;;31.38;;
54430;SDS011;40342;52.998;5.862;2023-11-18T04:40:42;57.88;;;29.20;;
54430;SDS011;40342;52.998;5.862;2023-11-18T04:43:10;96.30;;;30.15;;
54430;SDS011;40342;52.998;5.862;2023-11-18T04:45:36;72.53;;;29.55;;
54430;SDS011;40342;52.998;5.862;2023-11-18T04:48:02;85.13;;;29.17;;
54430;SDS011;40342;52.998;5.862;2023-11-18T04:50:29;64.65;;;28.00;;
54430;SDS011;40342;52.998;5.862;2023-11-18T04:52:55;46.47;;;29.25;;
54430;SDS011;40342;52.998;5.862;2023-11-18T04:55:21;72.18;;;29.88;;
54430;SDS011;40342;52.998;5.862;2023-11-18T04:57:47;77.53;;;28.05;;
54430;SDS011;40342;52.998;5.862;2023-11-18T05:00:12;63.65;;;29.92;;
54430;SDS011;40342;52.998;5.862;2023-11-18T05:02:41;52.38;;;30.40;;
54430;SDS011;40342;52.998;5.862;2023-11-18T05:05:08;51.10;;;30.58;;
54430;SDS011;40342;52.998;5.862;2023-11-18T05:07:34;52.42;;;29.83;;
54430;SDS011;40342;52.998;5.862;2023-11-18T05:10:00;47.85;;;31.15;;
54430;SDS011;40342;52.998;5.862;2023-11-18T05:12:28;61.00;;;31.63;;
54430;SDS011;40342;52.998;5.862;2023-11-18T05:14:55;53.08;;;31.52;;
54430;SDS011;40342;52.998;5.862;2023-11-18T05:17:21;49.58;;;30.90;;
54430;SDS011;40342;52.998;5.862;2023-11-18T05:19:51;46.08;;;30.60;;
54430;SDS011;40342;52.998;5.862;2023-11-18T05:22:17;46.78;;;30.95;;
54430;SDS011;40342;52.998;5.862;2023-11-18T05:24:43;60.53;;;32.33;;
54430;SDS011;40342;52.998;5.862;2023-11-18T05:27:09;49.83;;;30.80;;
54430;SDS011;40342;52.998;5.862;2023-11-18T05:29:34;47.45;;;31.15;;
54430;SDS011;40342;52.998;5.862;2023-11-18T05:32:00;49.53;;;31.17;;
54430;SDS011;40342;52.998;5.862;2023-11-18T05:34:25;56.20;;;32.83;;
54430;SDS011;40342;52.998;5.862;2023-11-18T05:36:51;51.58;;;32.10;;
54430;SDS011;40342;52.998;5.862;2023-11-18T05:39:20;53.28;;;32.28;;
54430;SDS011;40342;52.998;5.862;2023-11-18T05:41:46;49.72;;;30.67;;
54430;SDS011;40342;52.998;5.862;2023-11-18T05:44:15;58.05;;;31.95;;
54430;SDS011;40342;52.998;5.862;2023-11-18T05:46:44;66.35;;;33.08;;
54430;SDS011;40342;52.998;5.862;2023-11-18T05:49:16;63.70;;;33.67;;
54430;SDS011;40342;52.998;5.862;2023-11-18T05:51:43;52.53;;;34.92;;
54430;SDS011;40342;52.998;5.862;2023-11-18T05:54:09;55.67;;;32.80;;
54430;SDS011;40342;52.998;5.862;2023-11-18T05:56:35;47.33;;;31.75;;
54430;SDS011;40342;52.998;5.862;2023-11-18T05:59:01;60.63;;;33.63;;
54430;SDS011;40342;52.998;5.862;2023-11-18T06:01:30;53.33;;;33.35;;
54430;SDS011;40342;52.998;5.862;2023-11-18T06:03:57;50.88;;;32.10;;
54430;SDS011;40342;52.998;5.862;2023-11-18T06:06:23;52.08;;;32.50;;
54430;SDS011;40342;52.998;5.862;2023-11-18T06:08:49;47.90;;;33.90;;
54430;SDS011;40342;52.998;5.862;2023-11-18T06:11:16;48.92;;;32.28;;
54430;SDS011;40342;52.998;5.862;2023-11-18T06:16:16;49.78;;;32.92;;
54430;SDS011;40342;52.998;5.862;2023-11-18T06:18:46;49.22;;;31.90;;
54430;SDS011;40342;52.998;5.862;2023-11-18T06:21:14;44.25;;;30.58;;
54430;SDS011;40342;52.998;5.862;2023-11-18T06:23:41;50.70;;;31.33;;
54430;SDS011;40342;52.998;5.862;2023-11-18T06:26:07;48.20;;;30.95;;
54430;SDS011;40342;52.998;5.862;2023-11-18T06:28:35;46.92;;;30.50;;
54430;SDS011;40342;52.998;5.862;2023-11-18T06:31:02;50.55;;;30.73;;
54430;SDS011;40342;52.998;5.862;2023-11-18T06:33:28;48.30;;;31.27;;
54430;SDS011;40342;52.998;5.862;2023-11-18T06:35:54;55.25;;;32.70;;
54430;SDS011;40342;52.998;5.862;2023-11-18T06:38:21;51.65;;;31.83;;
54430;SDS011;40342;52.998;5.862;2023-11-18T06:40:47;52.03;;;33.03;;
54430;SDS011;40342;52.998;5.862;2023-11-18T06:43:17;49.30;;;31.45;;
54430;SDS011;40342;52.998;5.862;2023-11-18T06:45:44;50.58;;;32.00;;
54430;SDS011;40342;52.998;5.862;2023-11-18T06:48:09;52.97;;;31.95;;
54430;SDS011;40342;52.998;5.862;2023-11-18T06:50:35;49.45;;;31.58;;
54430;SDS011;40342;52.998;5.862;2023-11-18T06:53:01;51.40;;;31.35;;
54430;SDS011;40342;52.998;5.862;2023-11-18T06:55:27;57.00;;;33.38;;
54430;SDS011;40342;52.998;5.862;2023-11-18T06:57:52;58.40;;;32.95;;
54430;SDS011;40342;52.998;5.862;2023-11-18T07:00:21;57.95;;;32.70;;
54430;SDS011;40342;52.998;5.862;2023-11-18T07:02:47;55.15;;;33.53;;
54430;SDS011;40342;52.998;5.862;2023-11-18T07:05:13;51.72;;;32.03;;
54430;SDS011;40342;52.998;5.862;2023-11-18T07:07:40;54.75;;;33.88;;
54430;SDS011;40342;52.998;5.862;2023-11-18T07:10:08;49.75;;;30.73;;
54430;SDS011;40342;52.998;5.862;2023-11-18T07:12:38;51.40;;;32.42;;
54430;SDS011;40342;52.998;5.862;2023-11-18T07:15:04;56.03;;;31.33;;
54430;SDS011;40342;52.998;5.862;2023-11-18T07:17:30;58.35;;;32.85;;
54430;SDS011;40342;52.998;5.862;2023-11-18T07:19:55;52.75;;;31.60;;
54430;SDS011;40342;52.998;5.862;2023-11-18T07:22:21;55.90;;;31.42;;
54430;SDS011;40342;52.998;5.862;2023-11-18T07:24:47;51.50;;;32.95;;
54430;SDS011;40342;52.998;5.862;2023-11-18T07:27:12;53.90;;;32.95;;
54430;SDS011;40342;52.998;5.862;2023-11-18T07:29:38;55.08;;;33.20;;
54430;SDS011;40342;52.998;5.862;2023-11-18T07:32:04;52.80;;;31.30;;
54430;SDS011;40342;52.998;5.862;2023-11-18T07:34:31;54.50;;;31.27;;
54430;SDS011;40342;52.998;5.862;2023-11-18T07:36:58;48.05;;;28.92;;
54430;SDS011;40342;52.998;5.862;2023-11-18T07:39:24;55.45;;;30.67;;
54430;SDS011;40342;52.998;5.862;2023-11-18T07:42:03;52.92;;;29.25;;
54430;SDS011;40342;52.998;5.862;2023-11-18T07:44:30;56.00;;;30.08;;
54430;SDS011;40342;52.998;5.862;2023-11-18T07:46:57;51.65;;;29.15;;
54430;SDS011;40342;52.998;5.862;2023-11-18T07:49:23;55.17;;;31.35;;
54430;SDS011;40342;52.998;5.862;2023-11-18T07:51:51;54.03;;;30.02;;
54430;SDS011;40342;52.998;5.862;2023-11-18T07:54:17;63.38;;;31.95;;
54430;SDS011;40342;52.998;5.862;2023-11-18T07:56:43;56.97;;;30.20;;
54430;SDS011;40342;52.998;5.862;2023-11-18T07:59:12;52.67;;;30.83;;
54430;SDS011;40342;52.998;5.862;2023-11-18T08:01:41;51.38;;;30.00;;
54430;SDS011;40342;52.998;5.862;2023-11-18T08:04:09;58.20;;;31.13;;
54430;SDS011;40342;52.998;5.862;2023-11-18T08:06:35;56.60;;;30.38;;
54430;SDS011;40342;52.998;5.862;2023-11-18T08:09:01;57.42;;;30.70;;
54430;SDS011;40342;52.998;5.862;2023-11-18T08:11:27;54.90;;;30.23;;
54430;SDS011;40342;52.998;5.862;2023-11-18T08:13:54;55.25;;;31.23;;
54430;SDS011;40342;52.998;5.862;2023-11-18T08:16:20;57.90;;;31.02;;
54430;SDS011;40342;52.998;5.862;2023-11-18T08:18:47;62.60;;;32.42;;
54430;SDS011;40342;52.998;5.862;2023-11-18T08:21:12;61.17;;;31.23;;
54430;SDS011;40342;52.998;5.862;2023-11-18T08:23:39;55.58;;;30.38;;
54430;SDS011;40342;52.998;5.862;2023-11-18T08:26:05;55.97;;;29.30;;
54430;SDS011;40342;52.998;5.862;2023-11-18T08:28:30;56.35;;;30.58;;
54430;SDS011;40342;52.998;5.862;2023-11-18T08:30:56;48.65;;;29.80;;
54430;SDS011;40342;52.998;5.862;2023-11-18T08:33:22;54.05;;;30.20;;
54430;SDS011;40342;52.998;5.862;2023-11-18T08:35:50;54.35;;;30.08;;
54430;SDS011;40342;52.998;5.862;2023-11-18T08:38:16;57.03;;;30.77;;
54430;SDS011;40342;52.998;5.862;2023-11-18T08:40:42;55.72;;;30.98;;
54430;SDS011;40342;52.998;5.862;2023-11-18T08:43:10;50.92;;;30.40;;
54430;SDS011;40342;52.998;5.862;2023-11-18T08:45:36;49.67;;;28.90;;
54430;SDS011;40342;52.998;5.862;2023-11-18T08:48:03;53.33;;;30.02;;
54430;SDS011;40342;52.998;5.862;2023-11-18T08:50:32;51.33;;;29.55;;
54430;SDS011;40342;52.998;5.862;2023-11-18T08:52:59;52.17;;;29.00;;
54430;SDS011;40342;52.998;5.862;2023-11-18T08:55:27;46.55;;;28.02;;
54430;SDS011;40342;52.998;5.862;2023-11-18T08:58:12;48.60;;;28.45;;
54430;SDS011;40342;52.998;5.862;2023-11-18T09:00:44;51.75;;;29.00;;
54430;SDS011;40342;52.998;5.862;2023-11-18T09:08:30;52.60;;;29.67;;
54430;SDS011;40342;52.998;5.862;2023-11-18T09:11:07;55.10;;;29.23;;
54430;SDS011;40342;52.998;5.862;2023-11-18T09:13:35;46.67;;;28.85;;
54430;SDS011;40342;52.998;5.862;2023-11-18T09:16:02;48.00;;;28.20;;
54430;SDS011;40342;52.998;5.862;2023-11-18T09:18:33;47.28;;;28.88;;
54430;SDS011;40342;52.998;5.862;2023-11-18T09:21:00;49.17;;;29.20;;
54430;SDS011;40342;52.998;5.862;2023-11-18T09:23:27;50.50;;;29.50;;
54430;SDS011;40342;52.998;5.862;2023-11-18T09:25:54;49.33;;;29.05;;
54430;SDS011;40342;52.998;5.862;2023-11-18T09:28:20;46.72;;;29.52;;
54430;SDS011;40342;52.998;5.862;2023-11-18T09:30:49;44.47;;;27.83;;
54430;SDS011;40342;52.998;5.862;2023-11-18T09:33:19;54.40;;;29.50;;
54430;SDS011;40342;52.998;5.862;2023-11-18T09:35:54;49.40;;;29.88;;
54430;SDS011;40342;52.998;5.862;2023-11-18T09:38:24;46.42;;;30.08;;
54430;SDS011;40342;52.998;5.862;2023-11-18T09:40:57;45.53;;;31.40;;
54430;SDS011;40342;52.998;5.862;2023-11-18T09:43:32;46.67;;;30.42;;
54430;SDS011;40342;52.998;5.862;2023-11-18T09:46:07;47.83;;;32.15;;
54430;SDS011;40342;52.998;5.862;2023-11-18T09:48:39;46.97;;;30.80;;
54430;SDS011;40342;52.998;5.862;2023-11-18T09:51:08;48.85;;;29.30;;
54430;SDS011;40342;52.998;5.862;2023-11-18T09:53:37;53.72;;;31.33;;
54430;SDS011;40342;52.998;5.862;2023-11-18T09:56:07;50.72;;;30.23;;
54430;SDS011;40342;52.998;5.862;2023-11-18T09:58:45;42.88;;;30.10;;
54430;SDS011;40342;52.998;5.862;2023-11-18T10:01:22;42.05;;;29.52;;
54430;SDS011;40342;52.998;5.862;2023-11-18T10:03:52;43.83;;;29.65;;
54430;SDS011;40342;52.998;5.862;2023-11-18T10:06:23;45.70;;;29.80;;
54430;SDS011;40342;52.998;5.862;2023-11-18T10:08:51;42.03;;;28.67;;
54430;SDS011;40342;52.998;5.862;2023-11-18T10:11:18;48.05;;;30.02;;
54430;SDS011;40342;52.998;5.862;2023-11-18T10:13:47;45.58;;;31.02;;
54430;SDS011;40342;52.998;5.862;2023-11-18T10:16:13;47.20;;;29.40;;
54430;SDS011;40342;52.998;5.862;2023-11-18T10:18:39;43.30;;;29.30;;
54430;SDS011;40342;52.998;5.862;2023-11-18T10:21:13;42.80;;;27.58;;
54430;SDS011;40342;52.998;5.862;2023-11-18T10:23:58;41.75;;;27.67;;
54430;SDS011;40342;52.998;5.862;2023-11-18T10:26:26;42.03;;;27.85;;
54430;SDS011;40342;52.998;5.862;2023-11-18T10:28:52;40.97;;;27.30;;
54430;SDS011;40342;52.998;5.862;2023-11-18T10:31:18;40.50;;;26.42;;
54430;SDS011;40342;52.998;5.862;2023-11-18T10:33:45;40.58;;;28.83;;
54430;SDS011;40342;52.998;5.862;2023-11-18T10:36:21;42.15;;;27.35;;
54430;SDS011;40342;52.998;5.862;2023-11-18T10:38:49;41.97;;;27.73;;
54430;SDS011;40342;52.998;5.862;2023-11-18T10:41:17;41.72;;;27.10;;
54430;SDS011;40342;52.998;5.862;2023-11-18T10:43:43;36.70;;;26.08;;
54430;SDS011;40342;52.998;5.862;2023-11-18T10:46:13;37.47;;;26.40;;
54430;SDS011;40342;52.998;5.862;2023-11-18T10:48:44;42.05;;;26.23;;
54430;SDS011;40342;52.998;5.862;2023-11-18T10:51:17;38.10;;;27.15;;
54430;SDS011;40342;52.998;5.862;2023-11-18T10:53:49;43.88;;;26.95;;
54430;SDS011;40342;52.998;5.862;2023-11-18T10:56:23;40.88;;;26.38;;
54430;SDS011;40342;52.998;5.862;2023-11-18T10:58:55;44.03;;;26.15;;
54430;SDS011;40342;52.998;5.862;2023-11-18T11:01:29;38.92;;;25.85;;
54430;SDS011;40342;52.998;5.862;2023-11-18T11:03:59;42.92;;;27.45;;
54430;SDS011;40342;52.998;5.862;2023-11-18T11:06:29;36.53;;;25.00;;
54430;SDS011;40342;52.998;5.862;2023-11-18T11:08:57;38.42;;;24.27;;
54430;SDS011;40342;52.998;5.862;2023-11-18T11:11:24;39.97;;;24.77;;
54430;SDS011;40342;52.998;5.862;2023-11-18T11:13:58;41.70;;;25.38;;
54430;SDS011;40342;52.998;5.862;2023-11-18T11:16:28;42.33;;;24.90;;
54430;SDS011;40342;52.998;5.862;2023-11-18T11:19:03;37.42;;;24.25;;
54430;SDS011;40342;52.998;5.862;2023-11-18T11:21:37;37.88;;;24.17;;
54430;SDS011;40342;52.998;5.862;2023-11-18T11:24:15;35.78;;;23.80;;
54430;SDS011;40342;52.998;5.862;2023-11-18T11:30:23;37.75;;;24.42;;
54430;SDS011;40342;52.998;5.862;2023-11-18T11:35:32;37.83;;;23.77;;
54430;SDS011;40342;52.998;5.862;2023-11-18T11:38:02;40.00;;;25.20;;
54430;SDS011;40342;52.998;5.862;2023-11-18T11:40:37;36.03;;;23.63;;
54430;SDS011;40342;52.998;5.862;2023-11-18T11:43:04;38.30;;;24.30;;
54430;SDS011;40342;52.998;5.862;2023-11-18T11:45:34;42.95;;;24.20;;
54430;SDS011;40342;52.998;5.862;2023-11-18T11:48:01;42.95;;;25.15;;
54430;SDS011;40342;52.998;5.862;2023-11-18T11:51:23;40.47;;;25.60;;
54430;SDS011;40342;52.998;5.862;2023-11-18T11:53:47;43.90;;;25.95;;
54430;SDS011;40342;52.998;5.862;2023-11-18T11:56:18;39.97;;;24.50;;
54430;SDS011;40342;52.998;5.862;2023-11-18T11:58:49;41.38;;;25.45;;
54430;SDS011;40342;52.998;5.862;2023-11-18T12:01:25;41.40;;;25.23;;
54430;SDS011;40342;52.998;5.862;2023-11-18T12:03:58;40.03;;;26.45;;
54430;SDS011;40342;52.998;5.862;2023-11-18T12:09:06;40.78;;;24.60;;
54430;SDS011;40342;52.998;5.862;2023-11-18T12:11:37;39.50;;;27.08;;
54430;SDS011;40342;52.998;5.862;2023-11-18T12:14:11;41.20;;;25.38;;
54430;SDS011;40342;52.998;5.862;2023-11-18T12:16:58;36.55;;;23.92;;
54430;SDS011;40342;52.998;5.862;2023-11-18T12:19:46;42.60;;;25.67;;
54430;SDS011;40342;52.998;5.862;2023-11-18T12:22:22;40.33;;;24.90;;
54430;SDS011;40342;52.998;5.862;2023-11-18T12:35:40;30.73;;;20.92;;
54430;SDS011;40342;52.998;5.862;2023-11-18T12:41:00;30.38;;;19.45;;
54430;SDS011;40342;52.998;5.862;2023-11-18T12:49:07;32.63;;;17.70;;
54430;SDS011;40342;52.998;5.862;2023-11-18T12:51:48;28.95;;;17.52;;
54430;SDS011;40342;52.998;5.862;2023-11-18T12:54:15;26.52;;;17.73;;
54430;SDS011;40342;52.998;5.862;2023-11-18T12:56:43;31.15;;;17.77;;
54430;SDS011;40342;52.998;5.862;2023-11-18T12:59:11;28.40;;;17.00;;
54430;SDS011;40342;52.998;5.862;2023-11-18T13:01:38;24.45;;;16.65;;
54430;SDS011;40342;52.998;5.862;2023-11-18T13:04:06;27.48;;;15.82;;
54430;SDS011;40342;52.998;5.862;2023-11-18T13:06:34;28.38;;;16.15;;
54430;SDS011;40342;52.998;5.862;2023-11-18T13:08:59;23.20;;;15.68;;
54430;SDS011;40342;52.998;5.862;2023-11-18T13:11:30;23.38;;;15.25;;
54430;SDS011;40342;52.998;5.862;2023-11-18T13:13:58;24.67;;;16.10;;
54430;SDS011;40342;52.998;5.862;2023-11-18T13:16:24;21.38;;;15.65;;
54430;SDS011;40342;52.998;5.862;2023-11-18T13:18:50;20.77;;;15.13;;
54430;SDS011;40342;52.998;5.862;2023-11-18T13:21:17;22.88;;;14.43;;
54430;SDS011;40342;52.998;5.862;2023-11-18T13:23:47;18.52;;;13.85;;
54430;SDS011;40342;52.998;5.862;2023-11-18T13:26:15;19.20;;;14.05;;
54430;SDS011;40342;52.998;5.862;2023-11-18T13:28:41;18.98;;;13.82;;
54430;SDS011;40342;52.998;5.862;2023-11-18T13:31:08;23.10;;;13.25;;
54430;SDS011;40342;52.998;5.862;2023-11-18T13:33:41;18.40;;;12.77;;
54430;SDS011;40342;52.998;5.862;2023-11-18T13:36:14;17.23;;;12.75;;
54430;SDS011;40342;52.998;5.862;2023-11-18T13:38:40;16.15;;;12.88;;
54430;SDS011;40342;52.998;5.862;2023-11-18T13:41:09;16.10;;;12.32;;
54430;SDS011;40342;52.998;5.862;2023-11-18T13:43:41;15.90;;;11.95;;
54430;SDS011;40342;52.998;5.862;2023-11-18T13:46:10;15.27;;;12.48;;
54430;SDS011;40342;52.998;5.862;2023-11-18T13:48:39;19.50;;;13.07;;
54430;SDS011;40342;52.998;5.862;2023-11-18T13:51:06;17.10;;;12.82;;
54430;SDS011;40342;52.998;5.862;2023-11-18T13:53:39;16.33;;;12.85;;
54430;SDS011;40342;52.998;5.862;2023-11-18T13:56:06;19.25;;;13.05;;
54430;SDS011;40342;52.998;5.862;2023-11-18T13:58:34;16.30;;;13.15;;
54430;SDS011;40342;52.998;5.862;2023-11-18T14:01:04;17.00;;;12.60;;
54430;SDS011;40342;52.998;5.862;2023-11-18T14:03:34;15.80;;;12.88;;
54430;SDS011;40342;52.998;5.862;2023-11-18T14:06:02;16.95;;;13.07;;
54430;SDS011;40342;52.998;5.862;2023-11-18T14:08:30;16.00;;;12.40;;
54430;SDS011;40342;52.998;5.862;2023-11-18T14:10:56;18.88;;;12.88;;
54430;SDS011;40342;52.998;5.862;2023-11-18T14:13:21;16.88;;;12.32;;
54430;SDS011;40342;52.998;5.862;2023-11-18T14:15:47;17.70;;;12.38;;
54430;SDS011;40342;52.998;5.862;2023-11-18T14:18:14;17.27;;;12.02;;
54430;SDS011;40342;52.998;5.862;2023-11-18T14:20:40;17.77;;;12.05;;
54430;SDS011;40342;52.998;5.862;2023-11-18T14:23:05;17.10;;;12.43;;
54430;SDS011;40342;52.998;5.862;2023-11-18T14:25:31;15.88;;;11.90;;
54430;SDS011;40342;52.998;5.862;2023-11-18T14:27:57;16.27;;;12.82;;
54430;SDS011;40342;52.998;5.862;2023-11-18T14:30:23;13.45;;;10.88;;
54430;SDS011;40342;52.998;5.862;2023-11-18T14:32:53;15.27;;;12.05;;
54430;SDS011;40342;52.998;5.862;2023-11-18T14:35:19;17.15;;;12.98;;
54430;SDS011;40342;52.998;5.862;2023-11-18T14:37:45;13.90;;;10.98;;
54430;SDS011;40342;52.998;5.862;2023-11-18T14:40:12;14.27;;;11.25;;
54430;SDS011;40342;52.998;5.862;2023-11-18T14:42:40;12.25;;;10.68;;
54430;SDS011;40342;52.998;5.862;2023-11-18T14:45:07;12.05;;;10.80;;
54430;SDS011;40342;52.998;5.862;2023-11-18T14:47:33;13.30;;;12.00;;
54430;SDS011;40342;52.998;5.862;2023-11-18T14:49:59;13.13;;;11.68;;
54430;SDS011;40342;52.998;5.862;2023-11-18T14:52:27;12.77;;;10.57;;
54430;SDS011;40342;52.998;5.862;2023-11-18T14:54:53;17.95;;;13.45;;
54430;SDS011;40342;52.998;5.862;2023-11-18T14:57:18;22.85;;;17.02;;
54430;SDS011;40342;52.998;5.862;2023-11-18T14:59:44;25.52;;;14.13;;
54430;SDS011;40342;52.998;5.862;2023-11-18T15:02:09;15.65;;;11.00;;
54430;SDS011;40342;52.998;5.862;2023-11-18T15:04:35;14.65;;;10.48;;
54430;SDS011;40342;52.998;5.862;2023-11-18T15:07:01;13.57;;;11.50;;